Sauk Village, Illinois
Current Conditions -  °F | °C
As of 12:35 AM on Saturday 25 Oct 2014 (Local Time) from KIGQ Reporting Station
Overcast Overcast  
Wind Chill: 57°   Ceiling: 4200
Heat Index: 57°   Visibility: 10mi
Dew Point: 51°   Wind: 3mph
Humidity: 80%   Direction: 200°SSW
Pressure: 29.94"   Gusts: NA
Location:  41.5054°N, 87.5907°W
Report Text: KIGQ 250535Z AUTO 20003KT 10SM OVC042 14/11 A2994 RMK AO2 T01400106
Loading
Personal Weather Stations






























Interactive Weather Map
Tropical Storm Tracking
New forecast layout! Learn more

10-Day Weather Forecast

Advertisements
Track Severe Weather on mobile